Time;durP1;ratioP1;P1;durP2;ratioP2;P2;SDS_P1;SDS_P2;PMS_P1;PMS_P2;Temp;Humidity;BMP_temperature;BMP_pressure;BME280_temperature;BME280_humidity;BME280_pressure;Samples;Min_cycle;Max_cycle;Signal;HPM_P1;HPM_P2
2021/03/02 00:02:15;;;;;;;33.08;19.58;;;3.30;99.90;;;;;;5100203;28;20211;-80
2021/03/02 00:04:43;;;;;;;32.85;19.60;;;3.30;99.90;;;;;;5099272;28;20692;-81
2021/03/02 00:07:12;;;;;;;42.80;20.10;;;3.30;99.90;;;;;;5096688;28;20224;-81
2021/03/02 00:09:38;;;;;;;42.92;20.33;;;3.30;99.90;;;;;;5099723;28;20202;-81
2021/03/02 00:12:07;;;;;;;46.15;23.75;;;3.20;99.90;;;;;;5098937;28;20304;-82
2021/03/02 00:14:35;;;;;;;37.92;20.80;;;3.20;99.90;;;;;;5099288;28;20207;-81
2021/03/02 00:17:03;;;;;;;44.72;21.70;;;3.20;99.90;;;;;;5098255;28;20254;-81
2021/03/02 00:19:37;;;;;;;42.42;20.42;;;3.20;99.90;;;;;;5099675;28;20200;-82
2021/03/02 00:22:12;;;;;;;47.20;23.02;;;3.10;99.90;;;;;;5098811;28;20220;-82
2021/03/02 00:24:41;;;;;;;39.00;20.77;;;3.10;99.90;;;;;;5091056;28;20185;-82
2021/03/02 00:27:12;;;;;;;45.08;21.98;;;3.20;99.90;;;;;;5098464;28;20579;-81
2021/03/02 00:29:41;;;;;;;42.85;22.45;;;3.20;99.90;;;;;;5098504;28;20181;-82
2021/03/02 00:32:09;;;;;;;39.30;21.23;;;3.10;99.90;;;;;;5099385;28;20291;-81
2021/03/02 00:34:36;;;;;;;44.95;21.65;;;3.10;99.90;;;;;;5099348;28;20201;-82
2021/03/02 00:37:02;;;;;;;44.72;23.90;;;3.10;99.90;;;;;;5097477;28;20222;-82
2021/03/02 00:39:28;;;;;;;52.17;23.27;;;3.00;99.90;;;;;;5098980;28;20700;-82
2021/03/02 00:41:55;;;;;;;42.30;23.33;;;3.00;99.90;;;;;;5098229;28;20201;-82
2021/03/02 00:44:22;;;;;;;39.95;21.48;;;3.00;99.90;;;;;;5098956;28;20196;-82
2021/03/02 00:46:48;;;;;;;44.13;22.52;;;3.00;99.90;;;;;;5098164;28;20212;-78
2021/03/02 00:49:14;;;;;;;40.42;21.52;;;3.00;99.90;;;;;;5098917;28;20193;-82
2021/03/02 00:51:40;;;;;;;45.50;22.20;;;2.90;99.90;;;;;;5098980;28;20223;-79
2021/03/02 00:54:07;;;;;;;47.90;22.13;;;2.90;99.90;;;;;;5097771;28;20199;-82
2021/03/02 00:56:33;;;;;;;45.53;22.25;;;3.00;99.90;;;;;;5078462;28;20198;-81
2021/03/02 00:59:00;;;;;;;49.05;22.10;;;2.90;99.90;;;;;;5079339;28;20208;-82
2021/03/02 01:01:26;;;;;;;41.92;24.13;;;3.00;99.90;;;;;;5079938;28;20205;-82
2021/03/02 01:03:52;;;;;;;39.53;20.38;;;3.00;99.90;;;;;;5078997;28;20223;-82
2021/03/02 01:06:19;;;;;;;40.92;22.13;;;2.90;99.90;;;;;;5078041;28;20282;-81
2021/03/02 01:08:45;;;;;;;47.85;22.17;;;2.90;99.90;;;;;;5077155;28;20192;-81
2021/03/02 01:11:11;;;;;;;38.55;21.88;;;2.90;99.90;;;;;;5077051;28;20205;-82
2021/03/02 01:13:37;;;;;;;39.53;21.90;;;2.90;99.90;;;;;;5076092;28;20220;-82
2021/03/02 01:16:05;;;;;;;41.80;23.50;;;2.80;99.90;;;;;;5082369;28;20190;-81
2021/03/02 01:18:32;;;;;;;39.88;20.35;;;2.80;99.90;;;;;;5082403;28;20689;-82
2021/03/02 01:20:58;;;;;;;49.42;21.00;;;2.80;99.90;;;;;;5085109;28;20405;-82
2021/03/02 01:23:24;;;;;;;46.65;22.25;;;2.80;99.90;;;;;;5088578;28;20229;-81
2021/03/02 01:25:51;;;;;;;38.28;21.13;;;2.80;99.90;;;;;;5093273;28;20216;-80
2021/03/02 01:28:17;;;;;;;43.50;22.23;;;2.80;99.90;;;;;;5099589;28;20543;-82
2021/03/02 01:30:43;;;;;;;36.90;22.13;;;2.80;99.90;;;;;;5099578;28;20752;-81
2021/03/02 01:33:10;;;;;;;37.80;20.88;;;2.80;99.90;;;;;;5100379;28;20210;-82
2021/03/02 01:35:37;;;;;;;41.78;22.30;;;2.80;99.90;;;;;;5098164;28;20197;-81
2021/03/02 01:38:04;;;;;;;43.33;24.25;;;2.70;99.90;;;;;;5097568;28;20191;-82
2021/03/02 01:40:31;;;;;;;44.55;24.25;;;2.70;99.90;;;;;;5099074;28;20247;-81
2021/03/02 01:42:57;;;;;;;36.40;22.40;;;2.60;99.90;;;;;;5099610;28;20212;-82
2021/03/02 01:45:24;;;;;;;49.28;23.42;;;2.60;99.90;;;;;;5099110;28;20194;-82
2021/03/02 01:47:53;;;;;;;40.67;24.27;;;2.60;99.90;;;;;;5098013;28;20189;-80
2021/03/02 01:50:22;;;;;;;43.85;23.75;;;2.60;99.90;;;;;;5099319;28;20207;-82
2021/03/02 01:52:48;;;;;;;43.65;26.10;;;2.70;99.90;;;;;;5099029;28;20215;-81
2021/03/02 01:55:17;;;;;;;46.65;24.58;;;2.70;99.90;;;;;;5090068;28;20186;-83
2021/03/02 01:57:44;;;;;;;41.38;24.67;;;2.80;99.90;;;;;;5098693;28;20193;-81
2021/03/02 02:00:20;;;;;;;42.92;25.67;;;2.80;99.90;;;;;;5098365;28;20223;-82
2021/03/02 02:02:57;;;;;;;48.95;24.42;;;2.80;99.90;;;;;;5099236;28;20609;-81
2021/03/02 02:05:25;;;;;;;49.85;24.42;;;2.80;99.90;;;;;;5099691;28;20174;-82
2021/03/02 02:07:55;;;;;;;52.00;24.80;;;2.80;99.90;;;;;;5097596;28;20284;-81
2021/03/02 02:10:31;;;;;;;45.22;26.17;;;2.70;99.90;;;;;;5099156;28;20536;-81
2021/03/02 02:13:04;;;;;;;45.83;24.30;;;2.80;99.90;;;;;;5098800;28;20220;-81
2021/03/02 02:15:35;;;;;;;50.40;24.90;;;2.70;99.90;;;;;;5098810;28;20174;-81
2021/03/02 02:18:04;;;;;;;44.70;25.27;;;2.70;99.90;;;;;;5098135;28;20267;-81
2021/03/02 02:20:43;;;;;;;42.40;25.17;;;2.70;99.90;;;;;;5098736;28;20201;-82
2021/03/02 02:23:18;;;;;;;47.60;24.42;;;2.70;99.90;;;;;;5096107;28;20230;-82
2021/03/02 02:25:55;;;;;;;47.20;24.40;;;2.60;99.90;;;;;;5078116;28;20220;-82
2021/03/02 02:28:24;;;;;;;45.92;24.08;;;2.60;99.90;;;;;;5079117;28;20245;-82
2021/03/02 02:30:56;;;;;;;49.70;26.20;;;2.60;99.90;;;;;;5077491;28;20291;-81
2021/03/02 02:33:25;;;;;;;49.10;25.88;;;2.50;99.90;;;;;;5078104;28;20222;-82
2021/03/02 02:35:53;;;;;;;41.55;23.98;;;2.50;99.90;;;;;;5075737;28;20198;-81
2021/03/02 02:38:21;;;;;;;37.88;21.42;;;2.40;99.90;;;;;;5096752;28;20200;-82
2021/03/02 02:40:49;;;;;;;41.95;24.27;;;2.40;99.90;;;;;;5100540;28;20201;-81
2021/03/02 02:43:17;;;;;;;44.17;27.35;;;2.40;99.90;;;;;;5102616;28;20224;-82
2021/03/02 02:45:45;;;;;;;43.20;25.50;;;2.30;99.90;;;;;;5098125;28;20211;-79
2021/03/02 02:48:12;;;;;;;43.30;23.67;;;2.30;99.90;;;;;;5097491;28;20196;-82
2021/03/02 02:50:39;;;;;;;42.28;24.75;;;2.30;99.90;;;;;;5098858;28;20197;-81
2021/03/02 02:53:06;;;;;;;41.13;23.90;;;2.30;99.90;;;;;;5109539;28;20219;-82
2021/03/02 02:55:37;;;;;;;51.60;25.15;;;2.30;99.90;;;;;;5114539;28;20672;-82
2021/03/02 02:58:07;;;;;;;42.47;22.65;;;2.30;99.90;;;;;;5120660;28;20184;-81
2021/03/02 03:00:36;;;;;;;43.03;23.80;;;2.20;99.90;;;;;;5122189;28;20642;-81
2021/03/02 03:03:08;;;;;;;42.13;24.08;;;2.20;99.90;;;;;;5122129;28;20220;-81
2021/03/02 03:05:36;;;;;;;41.72;24.65;;;2.20;99.90;;;;;;5122581;28;20288;-82
2021/03/02 03:08:07;;;;;;;46.83;23.58;;;2.10;99.90;;;;;;5120614;28;20256;-82
2021/03/02 03:10:34;;;;;;;36.50;22.88;;;2.10;99.90;;;;;;5122182;28;20183;-81
2021/03/02 03:13:04;;;;;;;50.00;27.48;;;2.10;99.90;;;;;;5121172;28;20219;-82
2021/03/02 03:15:35;;;;;;;53.50;24.92;;;2.10;99.90;;;;;;5122883;28;20192;-81
2021/03/02 03:18:06;;;;;;;40.67;23.88;;;2.10;99.90;;;;;;5120553;28;20198;-82
2021/03/02 03:20:33;;;;;;;40.47;23.83;;;2.00;99.90;;;;;;5122064;28;20183;-82
2021/03/02 03:22:59;;;;;;;41.65;22.90;;;2.00;99.90;;;;;;5121044;28;20230;-82
2021/03/02 03:25:26;;;;;;;42.83;23.92;;;2.00;99.90;;;;;;5094964;28;20194;-81
2021/03/02 03:27:56;;;;;;;43.50;25.02;;;1.90;99.90;;;;;;5120269;28;20281;-81
2021/03/02 03:30:24;;;;;;;46.67;24.77;;;2.00;99.90;;;;;;5121692;28;20280;-82
2021/03/02 03:32:55;;;;;;;47.88;23.90;;;2.00;99.90;;;;;;5121427;28;20242;-83
2021/03/02 03:35:24;;;;;;;39.45;24.00;;;2.00;99.90;;;;;;5121568;28;20197;-82
2021/03/02 03:37:50;;;;;;;42.03;23.63;;;2.00;99.90;;;;;;5118828;28;20725;-80
2021/03/02 03:40:16;;;;;;;47.28;26.70;;;2.00;99.90;;;;;;5121349;28;20201;-82
2021/03/02 03:42:43;;;;;;;41.50;25.40;;;1.90;99.90;;;;;;5121591;28;20223;-80
2021/03/02 03:45:10;;;;;;;44.22;26.60;;;1.90;99.90;;;;;;5120990;28;20218;-81
2021/03/02 03:47:37;;;;;;;46.28;28.38;;;1.80;99.90;;;;;;5120728;28;20218;-82
2021/03/02 03:50:05;;;;;;;46.50;26.45;;;1.90;99.90;;;;;;5120401;28;20195;-82
2021/03/02 03:52:35;;;;;;;46.72;24.85;;;1.90;99.90;;;;;;5120983;28;20767;-83
2021/03/02 03:55:03;;;;;;;52.83;26.48;;;1.90;99.90;;;;;;5112331;28;20187;-81
2021/03/02 03:57:30;;;;;;;51.28;27.48;;;1.90;99.90;;;;;;5120271;28;20267;-82
2021/03/02 04:00:00;;;;;;;38.25;24.70;;;1.90;99.90;;;;;;5119528;28;20197;-80
2021/03/02 04:02:28;;;;;;;40.05;27.33;;;2.00;99.90;;;;;;5122692;28;20219;-82
2021/03/02 04:04:54;;;;;;;44.25;25.00;;;1.90;99.90;;;;;;5122547;28;20199;-81
2021/03/02 04:07:21;;;;;;;44.00;24.60;;;1.90;99.90;;;;;;5117552;28;20230;-82
2021/03/02 04:09:48;;;;;;;40.15;25.85;;;1.90;99.90;;;;;;5119195;28;20192;-80
2021/03/02 04:12:15;;;;;;;43.17;24.27;;;1.90;99.90;;;;;;5119342;28;20344;-81
2021/03/02 04:14:42;;;;;;;47.50;25.50;;;1.80;99.90;;;;;;5120170;28;20195;-80
2021/03/02 04:17:10;;;;;;;48.85;23.30;;;1.80;99.90;;;;;;5119066;28;20208;-81
2021/03/02 04:19:36;;;;;;;42.97;25.48;;;1.80;99.90;;;;;;5120390;28;20199;-80
2021/03/02 04:22:03;;;;;;;47.03;26.67;;;1.80;99.90;;;;;;5117743;28;20220;-80
2021/03/02 04:24:29;;;;;;;51.78;25.40;;;1.90;99.90;;;;;;5108258;28;20191;-81
2021/03/02 04:26:57;;;;;;;49.40;25.92;;;1.90;99.90;;;;;;5098623;28;20227;-81
2021/03/02 04:29:23;;;;;;;42.53;23.85;;;2.00;99.90;;;;;;5099088;28;20207;-81
2021/03/02 04:31:50;;;;;;;48.83;25.65;;;1.90;99.90;;;;;;5098832;28;20693;-81
2021/03/02 04:34:16;;;;;;;41.58;23.20;;;1.90;99.90;;;;;;5099835;28;20195;-81
2021/03/02 04:36:42;;;;;;;42.65;23.52;;;1.90;99.90;;;;;;5097116;28;20194;-81
2021/03/02 04:39:08;;;;;;;49.08;25.40;;;1.90;99.90;;;;;;5099216;28;20203;-81
2021/03/02 04:41:35;;;;;;;37.15;22.08;;;1.90;99.90;;;;;;5100564;28;20226;-82
2021/03/02 04:44:02;;;;;;;40.05;25.58;;;1.90;99.90;;;;;;5101250;28;20220;-82
2021/03/02 04:46:28;;;;;;;41.63;22.83;;;1.80;99.90;;;;;;5102918;28;20284;-81
2021/03/02 04:48:55;;;;;;;44.10;24.35;;;1.90;99.90;;;;;;5104806;28;20200;-81
2021/03/02 04:51:21;;;;;;;35.40;22.20;;;1.90;99.90;;;;;;5104563;28;20196;-80
2021/03/02 04:53:47;;;;;;;36.97;21.48;;;1.80;99.90;;;;;;5112985;28;20209;-80
2021/03/02 04:56:13;;;;;;;43.53;23.70;;;1.80;99.90;;;;;;5122942;28;20192;-81
2021/03/02 04:58:39;;;;;;;37.15;23.27;;;1.80;99.90;;;;;;5124815;28;20294;-81
2021/03/02 05:01:07;;;;;;;37.35;22.40;;;1.90;99.90;;;;;;5123425;28;20200;-81
2021/03/02 05:03:33;;;;;;;44.30;23.92;;;1.80;99.90;;;;;;5121401;28;20218;-79
2021/03/02 05:05:59;;;;;;;40.38;23.13;;;1.80;99.90;;;;;;5159507;22;20225;-78
2021/03/02 05:08:25;;;;;;;50.03;24.83;;;1.80;99.90;;;;;;5055016;28;20201;-80
2021/03/02 05:10:51;;;;;;;40.58;24.55;;;1.80;99.90;;;;;;5067060;28;20239;-81
2021/03/02 05:13:18;;;;;;;40.10;22.33;;;1.80;99.90;;;;;;5062061;28;20193;-79
2021/03/02 05:15:44;;;;;;;48.83;23.92;;;1.70;99.90;;;;;;5061558;28;20210;-78
2021/03/02 05:18:12;;;;;;;35.60;20.23;;;1.70;99.90;;;;;;5062111;28;20640;-80
2021/03/02 05:20:38;;;;;;;35.75;21.27;;;1.70;99.90;;;;;;5053322;28;20606;-78
2021/03/02 05:23:06;;;;;;;43.88;24.27;;;1.70;99.90;;;;;;5044377;28;20213;-79
2021/03/02 05:25:32;;;;;;;41.55;23.25;;;1.70;99.90;;;;;;5038608;28;20260;-80
2021/03/02 05:27:58;;;;;;;37.40;23.27;;;1.70;99.90;;;;;;5036851;28;20199;-78
2021/03/02 05:30:26;;;;;;;43.05;23.80;;;1.80;99.90;;;;;;5037937;28;20293;-78
2021/03/02 05:32:52;;;;;;;42.25;23.65;;;1.80;99.90;;;;;;5036882;28;20206;-80
2021/03/02 05:35:19;;;;;;;40.63;23.42;;;1.80;99.90;;;;;;5037309;28;20210;-77
2021/03/02 05:37:45;;;;;;;39.22;23.35;;;1.70;99.90;;;;;;5037016;28;20237;-78
2021/03/02 05:40:13;;;;;;;35.85;24.05;;;1.70;99.90;;;;;;5038374;28;20201;-79
2021/03/02 05:42:40;;;;;;;38.60;23.33;;;1.70;99.90;;;;;;5037411;28;20275;-76
2021/03/02 05:45:07;;;;;;;43.92;25.65;;;1.70;99.90;;;;;;5037991;28;20201;-79
2021/03/02 05:47:34;;;;;;;38.10;22.90;;;1.60;99.90;;;;;;5039967;28;20221;-78
2021/03/02 05:50:02;;;;;;;46.33;24.48;;;1.60;99.90;;;;;;5041252;28;20213;-79
2021/03/02 05:52:30;;;;;;;42.58;24.40;;;1.60;99.90;;;;;;5045638;28;20285;-78
2021/03/02 05:54:56;;;;;;;46.08;23.65;;;1.50;99.90;;;;;;5038421;28;20201;-78
2021/03/02 05:57:23;;;;;;;42.78;23.05;;;1.50;99.90;;;;;;5036810;28;20758;-79
2021/03/02 05:59:51;;;;;;;39.70;23.58;;;1.50;99.90;;;;;;5039287;28;20200;-79
2021/03/02 06:02:18;;;;;;;40.65;22.60;;;1.50;99.90;;;;;;5041312;28;20201;-78
2021/03/02 06:04:48;;;;;;;39.60;23.50;;;1.60;99.90;;;;;;5041217;28;20221;-80
2021/03/02 06:07:15;;;;;;;37.83;22.70;;;1.50;99.90;;;;;;5039105;28;20256;-79
2021/03/02 06:09:43;;;;;;;43.70;23.33;;;1.60;99.90;;;;;;5039571;28;20671;-78
2021/03/02 06:12:10;;;;;;;39.25;24.45;;;1.60;99.90;;;;;;5039496;28;20261;-79
2021/03/02 06:14:36;;;;;;;40.10;22.77;;;1.60;99.90;;;;;;5039853;28;20199;-79
2021/03/02 06:17:04;;;;;;;44.70;25.27;;;1.60;99.90;;;;;;5039128;28;20583;-78
2021/03/02 06:19:42;;;;;;;39.38;24.63;;;1.50;99.90;;;;;;5039771;28;20288;-78
2021/03/02 06:22:29;;;;;;;36.22;23.45;;;1.60;99.90;;;;;;5057011;28;20250;-79
2021/03/02 06:24:56;;;;;;;40.40;24.60;;;1.60;99.90;;;;;;5037829;28;20194;-78
2021/03/02 06:27:23;;;;;;;39.20;23.35;;;1.50;99.90;;;;;;5040195;28;20223;-79
2021/03/02 06:30:07;;;;;;;40.30;24.15;;;1.50;99.90;;;;;;5044417;28;20275;-79
2021/03/02 06:32:38;;;;;;;37.45;23.70;;;1.60;99.90;;;;;;5044180;28;20813;-79
2021/03/02 06:35:06;;;;;;;45.15;24.48;;;1.70;99.90;;;;;;5043694;28;20706;-78
2021/03/02 06:37:40;;;;;;;46.03;23.83;;;1.60;99.90;;;;;;5042467;28;20221;-75
2021/03/02 06:40:09;;;;;;;36.38;23.35;;;1.60;99.90;;;;;;5043970;28;20181;-79
2021/03/02 06:42:37;;;;;;;41.85;24.65;;;1.70;99.90;;;;;;5043957;28;20203;-79
2021/03/02 06:45:06;;;;;;;46.53;26.05;;;1.80;99.90;;;;;;5043822;28;20198;-79
2021/03/02 06:47:34;;;;;;;48.10;26.02;;;1.90;99.90;;;;;;5040745;28;20221;-78
2021/03/02 06:50:01;;;;;;;37.80;23.80;;;2.00;99.90;;;;;;5036293;28;20214;-78
2021/03/02 06:52:34;;;;;;;46.17;25.25;;;2.10;99.90;;;;;;5049183;28;20656;-78
2021/03/02 06:55:01;;;;;;;43.05;26.00;;;2.20;99.90;;;;;;5057458;28;20191;-78
2021/03/02 06:57:28;;;;;;;47.17;24.63;;;2.20;99.90;;;;;;5056952;28;20260;-78
2021/03/02 06:59:56;;;;;;;46.47;26.02;;;2.30;99.90;;;;;;5056608;28;20224;-78
2021/03/02 07:02:36;;;;;;;67.30;29.48;;;2.40;99.90;;;;;;5056321;28;20205;-79
2021/03/02 07:05:08;;;;;;;44.88;26.45;;;2.60;99.90;;;;;;5056512;28;20266;-78
2021/03/02 07:07:34;;;;;;;48.42;25.30;;;2.70;99.90;;;;;;5055067;28;20222;-77
2021/03/02 07:10:03;;;;;;;55.80;25.95;;;2.90;99.90;;;;;;5056632;28;20194;-78
2021/03/02 07:12:32;;;;;;;46.10;24.63;;;3.10;99.90;;;;;;5056151;28;20209;-79
2021/03/02 07:15:00;;;;;;;40.75;24.73;;;3.20;99.90;;;;;;5056234;28;20195;-78
2021/03/02 07:17:27;;;;;;;41.92;24.35;;;3.30;99.90;;;;;;5056039;28;20221;-78
2021/03/02 07:19:56;;;;;;;42.05;24.98;;;3.50;99.90;;;;;;5052659;28;20207;-78
2021/03/02 07:22:24;;;;;;;35.65;22.98;;;3.60;99.90;;;;;;5048677;28;20675;-79
2021/03/02 07:24:53;;;;;;;34.60;23.05;;;3.70;99.90;;;;;;5038417;28;20652;-78
2021/03/02 07:27:21;;;;;;;29.90;20.27;;;3.90;99.90;;;;;;5033127;28;20242;-79
2021/03/02 07:29:49;;;;;;;33.53;22.48;;;3.90;99.90;;;;;;5034770;28;20769;-79
2021/03/02 07:32:16;;;;;;;34.45;19.65;;;4.00;99.90;;;;;;5040365;28;20202;-78
2021/03/02 07:34:45;;;;;;;36.15;20.85;;;4.10;99.90;;;;;;5041402;28;20194;-78
2021/03/02 07:37:18;;;;;;;36.47;22.00;;;4.10;99.90;;;;;;5040055;28;20271;-79
2021/03/02 07:39:59;;;;;;;44.50;24.40;;;4.20;99.90;;;;;;5041405;28;20293;-80
2021/03/02 07:42:26;;;;;;;37.13;21.15;;;4.30;99.90;;;;;;5045750;28;20519;-79
2021/03/02 07:45:05;;;;;;;30.80;18.98;;;4.50;99.90;;;;;;5057319;28;20213;-80
2021/03/02 07:47:50;;;;;;;26.35;17.90;;;4.70;99.90;;;;;;5040899;28;20218;-80
2021/03/02 07:50:27;;;;;;;28.25;18.42;;;4.80;99.90;;;;;;5053254;28;20192;-78
2021/03/02 07:53:21;;;;;;;31.67;20.05;;;5.00;99.90;;;;;;5053424;28;20182;-79
2021/03/02 07:56:08;;;;;;;37.28;18.23;;;5.30;99.90;;;;;;5060697;28;20655;-77
2021/03/02 07:58:34;;;;;;;22.20;17.05;;;5.60;99.90;;;;;;5062881;28;20202;-78
2021/03/02 08:01:19;;;;;;;24.08;15.48;;;6.20;99.90;;;;;;5063584;28;20199;-78
2021/03/02 08:03:45;;;;;;;25.48;13.32;;;6.70;99.90;;;;;;5057612;28;20183;-78
2021/03/02 08:06:33;;;;;;;17.45;12.35;;;7.20;99.90;;;;;;5056375;28;20222;-78
2021/03/02 08:08:59;;;;;;;24.00;12.05;;;7.40;99.90;;;;;;5059002;28;20556;-78
2021/03/02 08:11:33;;;;;;;25.08;12.02;;;7.80;99.90;;;;;;5057887;28;20201;-80
2021/03/02 08:14:00;;;;;;;23.90;11.50;;;8.10;99.90;;;;;;5057520;28;20209;-79
2021/03/02 08:16:54;;;;;;;20.85;10.60;;;8.50;99.90;;;;;;5056128;28;20297;-79
2021/03/02 08:19:32;;;;;;;22.05;13.05;;;8.90;99.90;;;;;;5056793;28;20579;-78
2021/03/02 08:21:58;;;;;;;16.85;12.25;;;9.10;99.90;;;;;;5039429;28;20188;-80
2021/03/02 08:24:48;;;;;;;17.92;11.60;;;9.50;99.90;;;;;;5037338;28;20200;-78
2021/03/02 08:27:15;;;;;;;18.30;10.77;;;10.20;99.90;;;;;;5036413;28;20225;-79
2021/03/02 08:29:48;;;;;;;18.83;10.60;;;11.30;99.90;;;;;;5037393;28;20206;-78
2021/03/02 08:32:16;;;;;;;17.20;9.65;;;12.50;99.90;;;;;;5036793;28;20203;-79
2021/03/02 08:34:44;;;;;;;12.98;9.85;;;13.30;99.90;;;;;;5038794;28;20195;-79
2021/03/02 08:37:10;;;;;;;22.63;10.98;;;14.20;99.90;;;;;;5038215;28;20211;-79
2021/03/02 08:39:37;;;;;;;15.77;11.50;;;15.10;99.90;;;;;;5040795;28;20195;-78
2021/03/02 08:42:08;;;;;;;18.13;11.37;;;15.70;99.90;;;;;;5045067;28;20536;-79
2021/03/02 08:44:34;;;;;;;16.23;11.33;;;16.30;99.00;;;;;;5044469;28;20465;-78
2021/03/02 08:47:01;;;;;;;16.43;11.50;;;16.80;93.10;;;;;;5043376;28;20485;-79
2021/03/02 08:49:28;;;;;;;13.07;9.50;;;17.00;92.30;;;;;;5045982;28;20468;-79
2021/03/02 08:51:58;;;;;;;15.50;10.07;;;17.20;86.60;;;;;;5056855;28;20467;-79
2021/03/02 08:54:25;;;;;;;11.73;9.47;;;17.70;83.60;;;;;;5068579;28;20433;-79
2021/03/02 08:56:59;;;;;;;14.37;10.40;;;18.40;79.90;;;;;;5063959;28;20480;-78
2021/03/02 08:59:28;;;;;;;15.70;10.80;;;18.80;74.70;;;;;;5040567;28;20418;-80
2021/03/02 09:01:56;;;;;;;15.70;10.10;;;19.70;73.00;;;;;;5047805;28;20464;-79
2021/03/02 09:04:24;;;;;;;19.07;10.27;;;19.50;70.00;;;;;;5047750;28;20434;-80
2021/03/02 09:06:52;;;;;;;16.53;10.10;;;19.60;68.40;;;;;;5047083;28;20527;-79
2021/03/02 09:09:19;;;;;;;18.37;10.47;;;19.70;67.80;;;;;;5046667;28;20433;-80
2021/03/02 09:11:47;;;;;;;11.70;10.30;;;19.60;66.60;;;;;;5048245;28;20457;-79
2021/03/02 09:14:16;;;;;;;14.00;9.17;;;19.70;69.10;;;;;;5044304;28;20437;-79
2021/03/02 09:16:46;;;;;;;20.60;9.60;;;19.70;67.00;;;;;;5042004;28;20474;-80
2021/03/02 09:19:21;;;;;;;15.07;9.93;;;19.50;67.90;;;;;;5045651;28;20525;-81
2021/03/02 09:22:00;;;;;;;15.50;9.70;;;20.30;68.80;;;;;;5058144;28;20440;-80
2021/03/02 09:24:28;;;;;;;16.17;10.47;;;21.20;66.40;;;;;;5025253;28;20495;-80
2021/03/02 09:26:57;;;;;;;12.73;9.20;;;22.10;65.50;;;;;;5020995;28;20458;-79
2021/03/02 09:29:25;;;;;;;16.30;9.43;;;23.40;63.60;;;;;;5022707;28;20443;-81
2021/03/02 09:31:55;;;;;;;12.30;8.80;;;24.20;59.20;;;;;;5024074;28;20435;-81
2021/03/02 09:34:21;;;;;;;10.57;8.30;;;23.90;56.40;;;;;;5042252;28;20943;-79
2021/03/02 09:36:48;;;;;;;10.30;8.17;;;24.00;55.90;;;;;;5060835;28;20483;-79
2021/03/02 09:39:24;;;;;;;9.80;7.03;;;24.00;55.10;;;;;;5062890;28;20441;-79
2021/03/02 09:41:51;;;;;;;9.50;7.50;;;23.90;54.20;;;;;;5058849;28;20494;-78
2021/03/02 09:44:31;;;;;;;10.73;7.10;;;23.00;53.80;;;;;;5062282;28;20519;-78
2021/03/02 09:47:00;;;;;;;14.83;7.00;;;22.90;56.00;;;;;;5061257;28;20468;-80
2021/03/02 09:49:41;;;;;;;7.17;6.47;;;23.30;55.20;;;;;;5061545;28;20464;-79
2021/03/02 09:52:23;;;;;;;11.80;7.00;;;23.10;54.20;;;;;;5047315;28;20575;-80
2021/03/02 09:55:15;;;;;;;9.00;6.70;;;23.20;54.70;;;;;;5056880;28;20418;-78
2021/03/02 09:57:59;;;;;;;10.20;7.27;;;23.30;54.00;;;;;;5060908;28;20504;-78
2021/03/02 10:00:27;;;;;;;10.33;7.00;;;23.70;54.00;;;;;;5061307;28;20471;-79
2021/03/02 10:02:55;;;;;;;8.50;7.00;;;23.20;53.80;;;;;;5064095;28;20958;-77
2021/03/02 10:05:43;;;;;;;9.17;7.20;;;23.20;54.30;;;;;;5064496;28;20487;-78
2021/03/02 10:08:32;;;;;;;11.07;8.40;;;22.70;54.20;;;;;;5061356;28;20476;-78
2021/03/02 10:11:01;;;;;;;10.30;6.97;;;22.20;54.60;;;;;;5064363;28;20429;-78
2021/03/02 10:13:31;;;;;;;12.40;7.77;;;20.60;55.10;;;;;;5063272;28;20443;-78
2021/03/02 10:16:26;;;;;;;11.97;8.13;;;20.30;57.00;;;;;;5062062;28;20472;-78
2021/03/02 10:18:58;;;;;;;14.33;8.37;;;19.60;57.90;;;;;;5028894;28;20839;-78
2021/03/02 10:21:26;;;;;;;10.37;7.80;;;19.60;58.40;;;;;;5054911;28;20528;-79
2021/03/02 10:23:54;;;;;;;12.70;7.70;;;19.40;58.50;;;;;;5057389;28;20432;-78
2021/03/02 10:26:25;;;;;;;10.33;6.60;;;19.80;59.30;;;;;;5059989;28;20518;-78
2021/03/02 10:28:52;;;;;;;9.87;7.20;;;20.10;58.20;;;;;;5065797;28;20827;-78
2021/03/02 10:31:18;;;;;;;8.60;6.60;;;20.30;57.40;;;;;;5067063;28;20437;-81
2021/03/02 10:33:45;;;;;;;10.07;7.20;;;20.60;57.30;;;;;;5062996;28;20906;-78
2021/03/02 10:36:20;;;;;;;10.97;7.27;;;20.80;57.00;;;;;;5062104;28;20455;-78
2021/03/02 10:38:47;;;;;;;8.27;6.77;;;21.10;56.40;;;;;;5063302;28;20443;-79
2021/03/02 10:41:13;;;;;;;9.60;6.80;;;21.20;56.30;;;;;;5063763;28;20437;-78
2021/03/02 10:43:40;;;;;;;10.40;7.47;;;21.00;56.10;;;;;;5063161;28;20441;-79
2021/03/02 10:46:07;;;;;;;9.20;6.50;;;21.20;56.80;;;;;;5061169;28;20496;-78
2021/03/02 10:48:33;;;;;;;8.23;6.63;;;21.60;56.80;;;;;;5061952;28;20437;-78
2021/03/02 10:51:01;;;;;;;12.57;7.00;;;20.70;55.90;;;;;;5066534;28;20429;-79
2021/03/02 10:53:28;;;;;;;10.23;7.60;;;21.30;57.10;;;;;;5064396;28;20444;-78
2021/03/02 10:55:56;;;;;;;13.60;7.60;;;21.50;56.80;;;;;;5070269;28;20496;-79
2021/03/02 10:58:24;;;;;;;8.17;7.37;;;22.20;56.10;;;;;;5070952;28;20456;-80
2021/03/02 11:00:52;;;;;;;10.17;7.80;;;22.40;55.50;;;;;;5072152;28;20443;-78
2021/03/02 11:03:18;;;;;;;9.40;7.37;;;22.90;54.80;;;;;;5072416;28;20984;-79
2021/03/02 11:05:45;;;;;;;12.80;7.43;;;23.00;55.10;;;;;;5069250;28;20811;-78
2021/03/02 11:08:11;;;;;;;8.30;6.70;;;23.80;54.00;;;;;;5090901;22;20511;-81
2021/03/02 11:10:37;;;;;;;9.30;7.30;;;23.50;52.50;;;;;;5070011;28;20429;-80
2021/03/02 11:13:04;;;;;;;6.30;5.40;;;24.20;53.10;;;;;;5068271;28;20437;-80
2021/03/02 11:15:31;;;;;;;6.77;5.77;;;24.10;51.20;;;;;;5071313;28;20935;-79
2021/03/02 11:17:58;;;;;;;8.17;6.83;;;23.60;51.40;;;;;;5065985;28;20865;-79
2021/03/02 11:20:24;;;;;;;7.40;6.40;;;23.70;51.40;;;;;;5073442;28;20821;-82
2021/03/02 11:22:50;;;;;;;7.70;5.50;;;22.80;51.40;;;;;;5081450;28;20436;-81
2021/03/02 11:25:18;;;;;;;9.10;5.90;;;23.20;52.60;;;;;;5091672;28;20780;-82
2021/03/02 11:27:46;;;;;;;6.43;5.80;;;23.30;52.60;;;;;;5090473;28;20456;-82
2021/03/02 11:30:14;;;;;;;6.83;6.03;;;24.20;53.30;;;;;;5089441;28;20442;-81
2021/03/02 11:32:41;;;;;;;7.97;6.13;;;24.40;50.20;;;;;;5089649;28;20436;-80
2021/03/02 11:35:10;;;;;;;8.33;6.00;;;24.40;49.50;;;;;;5088451;28;20432;-83
2021/03/02 11:37:37;;;;;;;5.37;4.50;;;23.30;49.70;;;;;;5087789;28;20483;-81
2021/03/02 11:40:06;;;;;;;7.00;6.23;;;22.60;50.50;;;;;;5090251;28;20436;-81
2021/03/02 11:42:32;;;;;;;5.97;5.37;;;22.00;51.40;;;;;;5089878;28;20446;-82
2021/03/02 11:44:59;;;;;;;9.60;5.80;;;22.20;51.30;;;;;;5089785;28;20527;-79
2021/03/02 11:47:25;;;;;;;9.13;6.00;;;22.60;51.00;;;;;;5088841;28;21013;-81
2021/03/02 11:49:53;;;;;;;9.27;6.60;;;23.10;50.60;;;;;;5087798;28;20463;-82
2021/03/02 11:52:21;;;;;;;9.47;6.60;;;22.70;50.10;;;;;;5086299;28;20461;-82
2021/03/02 11:54:47;;;;;;;7.37;6.43;;;23.30;51.10;;;;;;5070379;28;20441;-81
2021/03/02 11:57:14;;;;;;;7.40;5.70;;;23.60;50.40;;;;;;5068222;28;20477;-80
2021/03/02 11:59:40;;;;;;;10.30;6.93;;;23.40;49.90;;;;;;5069763;28;20493;-82
2021/03/02 12:02:07;;;;;;;8.70;5.90;;;22.80;50.00;;;;;;5069662;28;20450;-82
2021/03/02 12:04:33;;;;;;;8.10;6.07;;;22.90;50.00;;;;;;5069183;28;20440;-82
2021/03/02 12:06:59;;;;;;;10.90;6.77;;;22.80;48.90;;;;;;5067139;28;20540;-82
2021/03/02 12:09:27;;;;;;;11.40;7.07;;;23.10;48.10;;;;;;5068829;28;20433;-83
2021/03/02 12:11:53;;;;;;;10.07;7.07;;;23.20;48.60;;;;;;5071172;28;20413;-81
2021/03/02 12:14:19;;;;;;;8.87;6.70;;;23.60;49.00;;;;;;5073853;28;20447;-81
2021/03/02 12:16:46;;;;;;;8.27;6.30;;;23.80;47.90;;;;;;5069158;28;20487;-83
2021/03/02 12:19:12;;;;;;;8.00;6.00;;;24.30;47.20;;;;;;5070509;28;20437;-82
2021/03/02 12:21:38;;;;;;;9.17;6.13;;;23.70;47.10;;;;;;5078956;28;20437;-82
2021/03/02 12:24:05;;;;;;;8.47;6.97;;;24.10;48.20;;;;;;5087682;28;20433;-81
2021/03/02 12:26:33;;;;;;;11.80;7.03;;;24.70;48.30;;;;;;5088262;28;20489;-83
2021/03/02 12:28:59;;;;;;;10.67;7.13;;;25.00;48.00;;;;;;5091047;28;20447;-80
2021/03/02 12:31:26;;;;;;;8.97;7.13;;;25.50;46.90;;;;;;5090841;28;20450;-79
2021/03/02 12:33:52;;;;;;;10.87;7.10;;;25.80;45.80;;;;;;5092918;28;20444;-80
2021/03/02 12:36:18;;;;;;;10.83;8.03;;;26.50;45.60;;;;;;5089509;28;20428;-82
2021/03/02 12:38:44;;;;;;;10.57;7.40;;;26.60;44.60;;;;;;5089769;28;20461;-81
2021/03/02 12:41:10;;;;;;;9.60;7.53;;;26.60;44.30;;;;;;5090648;28;20463;-81
2021/03/02 12:43:38;;;;;;;13.33;8.33;;;26.90;44.20;;;;;;5089869;28;20446;-82
2021/03/02 12:46:04;;;;;;;11.83;7.43;;;26.60;43.50;;;;;;5087096;28;20443;-80
2021/03/02 12:48:32;;;;;;;12.40;8.33;;;26.30;44.30;;;;;;5088942;28;20448;-81